Time;durP1;ratioP1;P1;durP2;ratioP2;P2;SDS_P1;SDS_P2;PMS_P1;PMS_P2;Temp;Humidity;BMP_temperature;BMP_pressure;BME280_temperature;BME280_humidity;BME280_pressure;Samples;Min_cycle;Max_cycle;Signal;HPM_P1;HPM_P2
2022/10/10 00:00:24;;;;;;;2.53;2.33;;;;;;;;;;5053915;28;20440;-41
2022/10/10 00:02:50;;;;;;;3.10;2.00;;;;;;;;;;5053213;28;20411;-41
2022/10/10 00:05:16;;;;;;;4.97;2.43;;;;;;;;;;5053569;28;20418;-42
2022/10/10 00:07:43;;;;;;;3.07;2.77;;;;;;;;;;5053594;28;20421;-42
2022/10/10 00:10:09;;;;;;;2.80;2.57;;;;;;;;;;5053613;28;20891;-41
2022/10/10 00:12:35;;;;;;;6.20;2.50;;;;;;;;;;5053069;28;20404;-41
2022/10/10 00:15:01;;;;;;;3.37;3.07;;;;;;;;;;5053292;28;20506;-41
2022/10/10 00:17:27;;;;;;;2.83;2.27;;;;;;;;;;5053505;28;20406;-41
2022/10/10 00:19:53;;;;;;;3.97;2.50;;;;;;;;;;5053423;28;20906;-41
2022/10/10 00:22:19;;;;;;;4.83;2.50;;;;;;;;;;5052867;28;20484;-42
2022/10/10 00:24:44;;;;;;;2.47;2.27;;;;;;;;;;5053083;28;20413;-44
2022/10/10 00:27:10;;;;;;;2.70;2.50;;;;;;;;;;5053563;28;20411;-41
2022/10/10 00:29:36;;;;;;;4.30;2.37;;;;;;;;;;5053480;28;20433;-41
2022/10/10 00:32:03;;;;;;;2.50;2.30;;;;;;;;;;5053101;28;20493;-41
2022/10/10 00:34:29;;;;;;;2.90;2.03;;;;;;;;;;5051302;28;20831;-41
2022/10/10 00:36:54;;;;;;;2.50;2.30;;;;;;;;;;5053320;28;20398;-41
2022/10/10 00:39:20;;;;;;;4.40;2.50;;;;;;;;;;5045562;28;21024;-41
2022/10/10 00:41:46;;;;;;;3.43;2.00;;;;;;;;;;5042735;28;20468;-41
2022/10/10 00:44:14;;;;;;;4.07;3.07;;;;;;;;;;5034693;28;20416;-41
2022/10/10 00:46:40;;;;;;;3.23;2.20;;;;;;;;;;5042644;28;20539;-41
2022/10/10 00:49:12;;;;;;;7.40;2.43;;;;;;;;;;5032744;28;20427;-41
2022/10/10 00:51:38;;;;;;;6.70;2.07;;;;;;;;;;5043223;28;20421;-41
2022/10/10 00:54:10;;;;;;;3.00;2.27;;;;;;;;;;5047460;28;20884;-41
2022/10/10 00:56:42;;;;;;;2.47;2.10;;;;;;;;;;5049584;28;20414;-40
2022/10/10 00:59:11;;;;;;;3.60;2.50;;;;;;;;;;5043712;28;20426;-41
2022/10/10 01:01:38;;;;;;;4.30;2.20;;;;;;;;;;5042758;28;20787;-41
2022/10/10 01:04:04;;;;;;;2.73;2.53;;;;;;;;;;5034099;28;20426;-41
2022/10/10 01:06:30;;;;;;;3.83;2.57;;;;;;;;;;5040625;28;20432;-41
2022/10/10 01:08:57;;;;;;;2.07;1.90;;;;;;;;;;5052242;28;20426;-41
2022/10/10 01:11:33;;;;;;;2.67;2.30;;;;;;;;;;5052155;28;20425;-41
2022/10/10 01:14:15;;;;;;;3.33;2.13;;;;;;;;;;5049788;28;20472;-41
2022/10/10 01:16:54;;;;;;;4.00;2.20;;;;;;;;;;5050107;28;20409;-41
2022/10/10 01:19:46;;;;;;;2.30;1.90;;;;;;;;;;5050193;28;20456;-42
2022/10/10 01:22:31;;;;;;;3.60;3.17;;;;;;;;;;5050196;28;20724;-41
2022/10/10 01:25:05;;;;;;;5.33;2.60;;;;;;;;;;5049946;28;20454;-43
2022/10/10 01:27:38;;;;;;;4.23;2.40;;;;;;;;;;5050024;28;20410;-41
2022/10/10 01:30:11;;;;;;;4.00;2.20;;;;;;;;;;5052321;28;20535;-42
2022/10/10 01:32:50;;;;;;;2.40;2.30;;;;;;;;;;5047992;28;20414;-41
2022/10/10 01:35:19;;;;;;;2.63;2.43;;;;;;;;;;5052123;28;20477;-42
2022/10/10 01:37:48;;;;;;;2.73;2.23;;;;;;;;;;5052084;28;20583;-41
2022/10/10 01:40:20;;;;;;;3.60;2.23;;;;;;;;;;5051916;28;20430;-41
2022/10/10 01:42:57;;;;;;;4.43;2.57;;;;;;;;;;5051466;28;20396;-40
2022/10/10 01:45:23;;;;;;;3.83;2.50;;;;;;;;;;5051709;28;20403;-41
2022/10/10 01:47:50;;;;;;;4.87;2.97;;;;;;;;;;5051633;28;20410;-42
2022/10/10 01:50:18;;;;;;;3.07;2.50;;;;;;;;;;5051734;28;20402;-40
2022/10/10 01:52:56;;;;;;;2.77;2.53;;;;;;;;;;5051144;28;20391;-41
2022/10/10 01:55:40;;;;;;;5.03;2.70;;;;;;;;;;5051641;28;20463;-41
2022/10/10 01:58:09;;;;;;;4.67;2.37;;;;;;;;;;5051587;28;20513;-41
2022/10/10 02:00:55;;;;;;;2.40;1.83;;;;;;;;;;5051655;28;20406;-41
2022/10/10 02:03:26;;;;;;;4.20;2.60;;;;;;;;;;5050760;28;20820;-41
2022/10/10 02:05:54;;;;;;;4.93;2.87;;;;;;;;;;5051489;28;20407;-42
2022/10/10 02:08:27;;;;;;;4.03;2.30;;;;;;;;;;5051524;28;20475;-41
2022/10/10 02:10:55;;;;;;;2.80;2.00;;;;;;;;;;5051532;28;20403;-41
2022/10/10 02:13:22;;;;;;;3.87;2.33;;;;;;;;;;5051484;28;20441;-43
2022/10/10 02:15:52;;;;;;;2.60;2.40;;;;;;;;;;5051550;28;20624;-44
2022/10/10 02:18:19;;;;;;;3.50;2.20;;;;;;;;;;5051382;28;20423;-43
2022/10/10 02:20:45;;;;;;;2.73;2.50;;;;;;;;;;5051696;28;20414;-43
2022/10/10 02:23:14;;;;;;;8.17;4.40;;;;;;;;;;5050768;28;20909;-43
2022/10/10 02:25:40;;;;;;;2.30;2.20;;;;;;;;;;5051505;28;20530;-43
2022/10/10 02:28:16;;;;;;;5.00;2.67;;;;;;;;;;5051396;28;20491;-43
2022/10/10 02:30:44;;;;;;;3.60;2.20;;;;;;;;;;5051527;28;20400;-43
2022/10/10 02:33:12;;;;;;;5.47;2.50;;;;;;;;;;5050841;28;20606;-43
2022/10/10 02:35:40;;;;;;;3.00;2.63;;;;;;;;;;5051499;28;20443;-43
2022/10/10 02:38:07;;;;;;;2.83;2.20;;;;;;;;;;5051355;28;20438;-43
2022/10/10 02:40:34;;;;;;;6.93;2.80;;;;;;;;;;5051432;28;20402;-43
2022/10/10 02:43:02;;;;;;;2.67;2.40;;;;;;;;;;5050809;28;20395;-43
2022/10/10 02:45:28;;;;;;;3.10;2.30;;;;;;;;;;5051997;28;20914;-43
2022/10/10 02:47:54;;;;;;;4.47;2.67;;;;;;;;;;5055088;28;20833;-43
2022/10/10 02:50:21;;;;;;;3.13;2.53;;;;;;;;;;5055153;28;20456;-43
2022/10/10 02:52:47;;;;;;;5.33;2.60;;;;;;;;;;5054546;28;20426;-43
2022/10/10 02:55:13;;;;;;;3.20;2.60;;;;;;;;;;5055129;28;20952;-43
2022/10/10 02:57:39;;;;;;;2.77;2.43;;;;;;;;;;5055015;28;20563;-43
2022/10/10 03:00:05;;;;;;;3.13;2.83;;;;;;;;;;5055101;28;20497;-43
2022/10/10 03:02:31;;;;;;;4.03;2.90;;;;;;;;;;5054246;28;20479;-43
2022/10/10 03:04:57;;;;;;;3.13;2.83;;;;;;;;;;5054844;28;20393;-43
2022/10/10 03:07:24;;;;;;;3.80;3.20;;;;;;;;;;5055015;28;20921;-43
2022/10/10 03:09:50;;;;;;;2.93;2.50;;;;;;;;;;5054778;28;20818;-43
2022/10/10 03:12:16;;;;;;;7.70;2.90;;;;;;;;;;5054218;28;20440;-43
2022/10/10 03:14:42;;;;;;;4.20;2.40;;;;;;;;;;5054711;28;20548;-43
2022/10/10 03:17:09;;;;;;;2.90;2.70;;;;;;;;;;5054676;28;20398;-43
2022/10/10 03:19:35;;;;;;;2.53;2.33;;;;;;;;;;5054411;28;20478;-43
2022/10/10 03:22:01;;;;;;;3.93;3.10;;;;;;;;;;5054457;28;20421;-43
2022/10/10 03:24:27;;;;;;;4.73;2.60;;;;;;;;;;5054082;28;20418;-44
2022/10/10 03:26:53;;;;;;;2.23;2.07;;;;;;;;;;5054478;28;20417;-44
2022/10/10 03:29:19;;;;;;;4.00;2.73;;;;;;;;;;5054444;28;20475;-43
2022/10/10 03:31:45;;;;;;;4.47;3.00;;;;;;;;;;5054312;28;20901;-43
2022/10/10 03:34:10;;;;;;;3.67;2.43;;;;;;;;;;5053768;28;20817;-43
2022/10/10 03:36:36;;;;;;;3.57;3.23;;;;;;;;;;5054328;28;20402;-43
2022/10/10 03:39:03;;;;;;;2.90;2.70;;;;;;;;;;5054322;28;20783;-43
2022/10/10 03:41:29;;;;;;;4.00;2.93;;;;;;;;;;5054255;28;20406;-44
2022/10/10 03:43:55;;;;;;;2.80;2.60;;;;;;;;;;5053698;28;20773;-43
2022/10/10 03:46:21;;;;;;;8.03;3.03;;;;;;;;;;5054147;28;20528;-44
2022/10/10 03:48:47;;;;;;;5.20;3.17;;;;;;;;;;5053929;28;20459;-43
2022/10/10 03:51:13;;;;;;;3.60;3.13;;;;;;;;;;5054108;28;20521;-44
2022/10/10 03:53:39;;;;;;;3.33;3.00;;;;;;;;;;5053394;28;20456;-43
2022/10/10 03:56:05;;;;;;;4.10;2.73;;;;;;;;;;5053671;28;20438;-44
2022/10/10 03:58:31;;;;;;;5.63;3.27;;;;;;;;;;5053795;28;20467;-43
2022/10/10 04:00:59;;;;;;;3.30;3.00;;;;;;;;;;5053808;28;20978;-43
2022/10/10 04:03:25;;;;;;;4.07;3.50;;;;;;;;;;5052961;28;20800;-44
2022/10/10 04:05:51;;;;;;;3.10;2.90;;;;;;;;;;5053798;28;20406;-43
2022/10/10 04:08:17;;;;;;;3.97;3.50;;;;;;;;;;5053585;28;20429;-43
2022/10/10 04:10:43;;;;;;;5.90;2.73;;;;;;;;;;5053748;28;20433;-44
2022/10/10 04:13:09;;;;;;;3.13;2.83;;;;;;;;;;5053045;28;20542;-43
2022/10/10 04:15:36;;;;;;;3.43;3.00;;;;;;;;;;5053589;28;20405;-43
2022/10/10 04:18:02;;;;;;;3.60;3.30;;;;;;;;;;5053331;28;20421;-43
2022/10/10 04:20:28;;;;;;;3.40;3.20;;;;;;;;;;5053545;28;20413;-44
2022/10/10 04:22:53;;;;;;;3.27;3.07;;;;;;;;;;5052894;28;20402;-43
2022/10/10 04:25:19;;;;;;;3.20;2.93;;;;;;;;;;5053525;28;20837;-44
2022/10/10 04:27:45;;;;;;;6.93;3.30;;;;;;;;;;5053718;28;20780;-43
2022/10/10 04:30:12;;;;;;;3.87;2.80;;;;;;;;;;5053277;28;20734;-43
2022/10/10 04:32:38;;;;;;;8.53;2.87;;;;;;;;;;5052558;28;20409;-44
2022/10/10 04:35:04;;;;;;;3.43;3.10;;;;;;;;;;5053350;28;20511;-44
2022/10/10 04:37:30;;;;;;;3.37;3.00;;;;;;;;;;5053173;28;20412;-43
2022/10/10 04:39:56;;;;;;;9.33;3.70;;;;;;;;;;5053106;28;20826;-44
2022/10/10 04:42:22;;;;;;;5.33;3.03;;;;;;;;;;5052545;28;20890;-44
2022/10/10 04:44:48;;;;;;;4.13;3.40;;;;;;;;;;5052937;28;20421;-43
2022/10/10 04:47:14;;;;;;;7.93;3.27;;;;;;;;;;5052902;28;20519;-43
2022/10/10 04:49:43;;;;;;;5.03;3.27;;;;;;;;;;5053015;28;20425;-43
2022/10/10 04:52:09;;;;;;;4.03;3.10;;;;;;;;;;5052822;28;20428;-43
2022/10/10 04:54:35;;;;;;;3.30;3.10;;;;;;;;;;5052342;28;20453;-43
2022/10/10 04:57:01;;;;;;;4.90;3.40;;;;;;;;;;5052810;28;20412;-43
2022/10/10 04:59:27;;;;;;;3.50;3.20;;;;;;;;;;5052204;28;20428;-44
2022/10/10 05:01:53;;;;;;;3.57;3.30;;;;;;;;;;5052291;28;20409;-43
2022/10/10 05:04:19;;;;;;;3.63;3.30;;;;;;;;;;5051955;28;20475;-43
2022/10/10 05:06:45;;;;;;;3.40;3.10;;;;;;;;;;5051134;28;20817;-43
2022/10/10 05:09:11;;;;;;;3.00;2.80;;;;;;;;;;5051189;28;20460;-44
2022/10/10 05:11:37;;;;;;;4.90;3.30;;;;;;;;;;5052215;28;20759;-44
2022/10/10 05:14:03;;;;;;;3.90;3.00;;;;;;;;;;5050884;28;20453;-44
2022/10/10 05:16:29;;;;;;;5.80;3.90;;;;;;;;;;5050653;28;20890;-44
2022/10/10 05:18:56;;;;;;;4.20;3.50;;;;;;;;;;5052046;28;20433;-43
2022/10/10 05:21:22;;;;;;;5.70;3.40;;;;;;;;;;5052139;28;20932;-44
2022/10/10 05:23:48;;;;;;;6.20;3.67;;;;;;;;;;5051793;28;20427;-43
2022/10/10 05:26:14;;;;;;;4.60;3.07;;;;;;;;;;5052291;28;20799;-43
2022/10/10 05:28:40;;;;;;;3.50;3.20;;;;;;;;;;5051956;28;20898;-43
2022/10/10 05:31:06;;;;;;;3.57;3.27;;;;;;;;;;5052233;28;20504;-44
2022/10/10 05:33:33;;;;;;;5.20;3.47;;;;;;;;;;5051501;28;20520;-44
2022/10/10 05:36:06;;;;;;;3.83;3.37;;;;;;;;;;5051817;28;20410;-44
2022/10/10 05:38:32;;;;;;;4.23;3.50;;;;;;;;;;5051152;28;20923;-44
2022/10/10 05:40:58;;;;;;;6.80;3.77;;;;;;;;;;5050928;28;20407;-43
2022/10/10 05:43:24;;;;;;;3.87;3.57;;;;;;;;;;5050661;28;20919;-44
2022/10/10 05:45:50;;;;;;;4.30;3.47;;;;;;;;;;5051545;28;20429;-43
2022/10/10 05:48:16;;;;;;;5.73;3.23;;;;;;;;;;5051636;28;20421;-43
2022/10/10 05:50:46;;;;;;;6.13;3.10;;;;;;;;;;5051883;28;20893;-43
2022/10/10 05:53:11;;;;;;;3.37;3.07;;;;;;;;;;5047063;28;20504;-43
2022/10/10 05:55:37;;;;;;;4.50;3.40;;;;;;;;;;5040015;28;20936;-43
2022/10/10 05:58:04;;;;;;;3.77;3.00;;;;;;;;;;5031123;28;20823;-43
2022/10/10 06:00:30;;;;;;;4.80;3.33;;;;;;;;;;5030025;28;20422;-43
2022/10/10 06:02:57;;;;;;;3.77;2.60;;;;;;;;;;5031024;28;20419;-43
2022/10/10 06:05:23;;;;;;;3.40;3.17;;;;;;;;;;5031724;28;20399;-43
2022/10/10 06:07:49;;;;;;;3.70;3.40;;;;;;;;;;5030737;28;20484;-43
2022/10/10 06:10:15;;;;;;;7.37;3.30;;;;;;;;;;5031397;28;20410;-43
2022/10/10 06:12:41;;;;;;;4.47;4.00;;;;;;;;;;5031144;28;20429;-43
2022/10/10 06:15:07;;;;;;;4.57;3.83;;;;;;;;;;5031671;28;20458;-43
2022/10/10 06:17:33;;;;;;;7.47;4.10;;;;;;;;;;5031717;28;20414;-43
2022/10/10 06:19:59;;;;;;;4.57;3.43;;;;;;;;;;5033321;28;20419;-43
2022/10/10 06:22:25;;;;;;;7.30;3.87;;;;;;;;;;5035215;28;20479;-43
2022/10/10 06:24:51;;;;;;;3.83;3.23;;;;;;;;;;5035722;28;20411;-43
2022/10/10 06:27:17;;;;;;;4.30;3.90;;;;;;;;;;5035663;28;20755;-43
2022/10/10 06:29:43;;;;;;;3.37;3.07;;;;;;;;;;5035607;28;20953;-43
2022/10/10 06:32:08;;;;;;;3.70;3.10;;;;;;;;;;5048098;28;20536;-43
2022/10/10 06:34:34;;;;;;;5.67;3.03;;;;;;;;;;5054588;28;20460;-43
2022/10/10 06:37:00;;;;;;;6.50;3.53;;;;;;;;;;5055441;28;20408;-43
2022/10/10 06:39:26;;;;;;;5.07;4.67;;;;;;;;;;5055107;28;20504;-43
2022/10/10 06:41:52;;;;;;;7.43;3.37;;;;;;;;;;5055054;28;20404;-43
2022/10/10 06:44:18;;;;;;;9.03;3.50;;;;;;;;;;5054623;28;20809;-43
2022/10/10 06:46:44;;;;;;;3.40;3.03;;;;;;;;;;5055200;28;20452;-43
2022/10/10 06:49:10;;;;;;;4.80;3.13;;;;;;;;;;5055155;28;20961;-43
2022/10/10 06:51:38;;;;;;;3.80;3.30;;;;;;;;;;5055114;28;20463;-43
2022/10/10 06:54:04;;;;;;;2.97;2.77;;;;;;;;;;5054192;28;20856;-43
2022/10/10 06:56:30;;;;;;;5.33;3.70;;;;;;;;;;5054903;28;20496;-43
2022/10/10 06:58:56;;;;;;;6.43;3.67;;;;;;;;;;5054829;28;20425;-43
2022/10/10 07:01:23;;;;;;;5.67;3.83;;;;;;;;;;5055234;28;20405;-43
2022/10/10 07:03:49;;;;;;;4.33;3.57;;;;;;;;;;5054222;28;20437;-43
2022/10/10 07:06:17;;;;;;;6.77;3.40;;;;;;;;;;5049754;28;20423;-43
2022/10/10 07:08:43;;;;;;;6.43;3.23;;;;;;;;;;5046895;28;20432;-43
2022/10/10 07:11:09;;;;;;;4.03;3.63;;;;;;;;;;5054648;28;20543;-43
2022/10/10 07:13:36;;;;;;;4.80;4.00;;;;;;;;;;5053145;28;20452;-43
2022/10/10 07:16:02;;;;;;;6.70;4.00;;;;;;;;;;5053332;28;20405;-44
2022/10/10 07:18:28;;;;;;;6.50;4.10;;;;;;;;;;5054052;28;20444;-43
2022/10/10 07:20:59;;;;;;;7.70;3.43;;;;;;;;;;5053948;28;20407;-43
2022/10/10 07:23:25;;;;;;;5.27;3.57;;;;;;;;;;5053489;28;20909;-44
2022/10/10 07:26:04;;;;;;;4.70;3.50;;;;;;;;;;5054712;28;20406;-44
2022/10/10 07:28:30;;;;;;;2.87;2.67;;;;;;;;;;5054093;28;20926;-43
2022/10/10 07:31:07;;;;;;;10.13;3.70;;;;;;;;;;5053860;28;20911;-44
2022/10/10 07:33:34;;;;;;;6.50;3.27;;;;;;;;;;5053738;28;20488;-44
2022/10/10 07:36:00;;;;;;;4.23;3.50;;;;;;;;;;5053963;28;20402;-44
2022/10/10 07:38:27;;;;;;;9.67;6.20;;;;;;;;;;5054173;28;20418;-44
2022/10/10 07:40:53;;;;;;;11.03;3.97;;;;;;;;;;5054276;28;20399;-44
2022/10/10 07:43:19;;;;;;;3.73;3.10;;;;;;;;;;5053598;28;20918;-44
2022/10/10 07:45:45;;;;;;;4.17;3.27;;;;;;;;;;5053916;28;20941;-44
2022/10/10 07:48:11;;;;;;;4.30;3.10;;;;;;;;;;5045802;28;20974;-44
2022/10/10 07:50:41;;;;;;;3.50;3.20;;;;;;;;;;5053714;28;20917;-43
2022/10/10 07:53:07;;;;;;;3.40;3.10;;;;;;;;;;5053271;28;20401;-44
2022/10/10 07:55:34;;;;;;;6.40;3.10;;;;;;;;;;5053690;28;20507;-44
2022/10/10 07:58:03;;;;;;;9.23;3.27;;;;;;;;;;5053814;28;21041;-44
2022/10/10 08:00:29;;;;;;;9.43;3.17;;;;;;;;;;5053933;28;20417;-43
2022/10/10 08:02:55;;;;;;;4.40;3.43;;;;;;;;;;5052911;28;20425;-43
2022/10/10 08:05:21;;;;;;;5.10;3.00;;;;;;;;;;5053521;28;20429;-43
2022/10/10 08:07:47;;;;;;;3.33;3.03;;;;;;;;;;5053556;28;20417;-43
2022/10/10 08:10:14;;;;;;;6.00;3.30;;;;;;;;;;5053655;28;20408;-44
2022/10/10 08:12:39;;;;;;;10.13;3.50;;;;;;;;;;5052999;28;20411;-43
2022/10/10 08:15:06;;;;;;;5.50;3.40;;;;;;;;;;5053372;28;20448;-43
2022/10/10 08:17:32;;;;;;;4.70;3.40;;;;;;;;;;5053219;28;20916;-44
2022/10/10 08:19:58;;;;;;;5.77;3.67;;;;;;;;;;5053352;28;20424;-44
2022/10/10 08:22:24;;;;;;;4.53;3.00;;;;;;;;;;5053248;28;20397;-43
2022/10/10 08:24:50;;;;;;;6.83;3.03;;;;;;;;;;5052826;28;20409;-44
2022/10/10 08:27:18;;;;;;;8.10;3.37;;;;;;;;;;5053105;28;20409;-44
2022/10/10 08:29:44;;;;;;;4.60;3.70;;;;;;;;;;5053210;28;20463;-43
2022/10/10 08:32:10;;;;;;;5.60;3.23;;;;;;;;;;5051181;28;20425;-44
2022/10/10 08:34:36;;;;;;;5.33;3.23;;;;;;;;;;5052912;28;20457;-43
2022/10/10 08:37:03;;;;;;;5.10;3.30;;;;;;;;;;5053349;28;20492;-46
2022/10/10 08:39:29;;;;;;;4.23;2.93;;;;;;;;;;5052846;28;20439;-46
2022/10/10 08:41:57;;;;;;;10.70;3.00;;;;;;;;;;5052831;28;20447;-46
2022/10/10 08:44:35;;;;;;;5.93;3.70;;;;;;;;;;5051526;28;20412;-46
2022/10/10 08:47:03;;;;;;;6.13;2.90;;;;;;;;;;5052800;28;20448;-46
2022/10/10 08:50:07;;;;;;;7.73;3.80;;;;;;;;;;5052803;28;20838;-46
2022/10/10 08:52:47;;;;;;;5.70;3.20;;;;;;;;;;5029879;28;20418;-45
2022/10/10 08:55:22;;;;;;;7.80;3.03;;;;;;;;;;5030292;28;20458;-47
2022/10/10 08:57:59;;;;;;;7.73;3.70;;;;;;;;;;5043979;28;20969;-47
2022/10/10 09:00:28;;;;;;;5.77;3.13;;;;;;;;;;5052815;28;20418;-47
2022/10/10 09:02:56;;;;;;;6.37;3.10;;;;;;;;;;5052008;28;20482;-48
2022/10/10 09:05:25;;;;;;;4.30;2.60;;;;;;;;;;5053029;28;20409;-48
2022/10/10 09:08:00;;;;;;;4.03;2.90;;;;;;;;;;5052143;28;20843;-47
2022/10/10 09:10:35;;;;;;;4.90;2.90;;;;;;;;;;5052592;28;20774;-47
2022/10/10 09:13:09;;;;;;;6.47;2.73;;;;;;;;;;5051931;28;20428;-45
2022/10/10 09:15:49;;;;;;;3.17;2.33;;;;;;;;;;5052415;28;20781;-48
2022/10/10 09:18:24;;;;;;;3.63;3.07;;;;;;;;;;5052367;28;20447;-48
2022/10/10 09:21:00;;;;;;;4.53;3.00;;;;;;;;;;5052385;28;20849;-48
2022/10/10 09:23:29;;;;;;;4.20;2.53;;;;;;;;;;5051888;28;20417;-48
2022/10/10 09:25:55;;;;;;;3.50;2.57;;;;;;;;;;5052315;28;20767;-48
2022/10/10 09:28:30;;;;;;;6.70;3.10;;;;;;;;;;5051813;28;20432;-47
2022/10/10 09:30:57;;;;;;;4.27;3.03;;;;;;;;;;5052253;28;20453;-48
2022/10/10 09:33:26;;;;;;;3.70;2.40;;;;;;;;;;5051447;28;20448;-47
2022/10/10 09:35:53;;;;;;;4.93;2.27;;;;;;;;;;5051631;28;20405;-49
2022/10/10 09:38:29;;;;;;;4.50;2.53;;;;;;;;;;5051979;28;20424;-48
2022/10/10 09:41:21;;;;;;;5.57;2.70;;;;;;;;;;5051760;28;20405;-48
2022/10/10 09:43:47;;;;;;;3.60;2.60;;;;;;;;;;5050170;28;20866;-48
2022/10/10 09:46:13;;;;;;;9.43;2.70;;;;;;;;;;5052014;28;20490;-48
2022/10/10 09:48:41;;;;;;;5.20;2.80;;;;;;;;;;5050963;28;20512;-49
2022/10/10 09:51:14;;;;;;;4.07;2.47;;;;;;;;;;5051899;28;20408;-47
2022/10/10 09:53:41;;;;;;;4.20;2.27;;;;;;;;;;5051207;28;20452;-47
2022/10/10 09:56:13;;;;;;;5.50;3.10;;;;;;;;;;5051473;28;20488;-47
2022/10/10 09:58:41;;;;;;;2.80;2.20;;;;;;;;;;5051526;28;20447;-47
2022/10/10 10:01:27;;;;;;;4.33;2.40;;;;;;;;;;5052073;28;20943;-45
2022/10/10 10:04:05;;;;;;;4.50;2.97;;;;;;;;;;5050842;28;20421;-45
2022/10/10 10:06:32;;;;;;;3.00;2.50;;;;;;;;;;5051807;28;20527;-47
2022/10/10 10:09:02;;;;;;;3.43;2.10;;;;;;;;;;5049705;28;20447;-48
2022/10/10 10:11:31;;;;;;;5.23;2.40;;;;;;;;;;5051935;28;20780;-48
2022/10/10 10:13:58;;;;;;;7.40;2.60;;;;;;;;;;5050893;28;20536;-49
2022/10/10 10:16:37;;;;;;;3.87;2.40;;;;;;;;;;5051271;28;20404;-47
2022/10/10 10:19:04;;;;;;;3.37;2.27;;;;;;;;;;5051178;28;20417;-48
2022/10/10 10:21:30;;;;;;;7.87;2.70;;;;;;;;;;5051551;28;20821;-45
2022/10/10 10:24:19;;;;;;;4.20;2.20;;;;;;;;;;5050936;28;20455;-46
2022/10/10 10:26:46;;;;;;;5.10;2.20;;;;;;;;;;5051329;28;20406;-49
2022/10/10 10:29:27;;;;;;;8.10;2.00;;;;;;;;;;5051107;28;20440;-49
2022/10/10 10:32:16;;;;;;;6.27;1.87;;;;;;;;;;5051259;28;20881;-44
2022/10/10 10:34:42;;;;;;;6.97;2.13;;;;;;;;;;5050606;28;20883;-48
2022/10/10 10:37:13;;;;;;;4.20;2.63;;;;;;;;;;5051108;28;20425;-46
2022/10/10 10:40:00;;;;;;;6.30;2.03;;;;;;;;;;5051059;28;20471;-47
2022/10/10 10:42:29;;;;;;;7.07;2.53;;;;;;;;;;5051046;28;20409;-47
2022/10/10 10:45:04;;;;;;;4.37;2.40;;;;;;;;;;5051115;28;20763;-48
2022/10/10 10:47:34;;;;;;;4.97;2.50;;;;;;;;;;5050978;28;20419;-46
2022/10/10 10:50:13;;;;;;;3.00;2.20;;;;;;;;;;5051161;28;20423;-48
2022/10/10 10:53:01;;;;;;;2.70;2.00;;;;;;;;;;5050941;28;20767;-45
2022/10/10 10:55:35;;;;;;;4.47;2.23;;;;;;;;;;5051031;28;20452;-46
2022/10/10 10:58:04;;;;;;;4.17;2.33;;;;;;;;;;5050325;28;20869;-46
2022/10/10 11:00:33;;;;;;;7.53;2.60;;;;;;;;;;5051345;28;20405;-47
2022/10/10 11:03:05;;;;;;;5.70;2.63;;;;;;;;;;5049250;28;20433;-49
2022/10/10 11:05:32;;;;;;;7.13;2.17;;;;;;;;;;5050994;28;20398;-48
2022/10/10 11:08:17;;;;;;;5.43;2.47;;;;;;;;;;5053661;28;20507;-47
2022/10/10 11:10:46;;;;;;;4.53;2.30;;;;;;;;;;5054748;28;20412;-47
2022/10/10 11:13:17;;;;;;;4.50;2.50;;;;;;;;;;5054110;28;20831;-48
2022/10/10 11:15:47;;;;;;;6.20;2.10;;;;;;;;;;5054807;28;20425;-48
2022/10/10 11:18:38;;;;;;;4.73;2.00;;;;;;;;;;5054261;28;20449;-46
2022/10/10 11:21:18;;;;;;;4.57;2.30;;;;;;;;;;5051433;28;20483;-47
2022/10/10 11:23:56;;;;;;;3.40;2.17;;;;;;;;;;5053797;28;20401;-48
2022/10/10 11:26:23;;;;;;;3.77;2.60;;;;;;;;;;5054023;28;20411;-48
2022/10/10 11:29:02;;;;;;;4.13;2.13;;;;;;;;;;5054515;28;20496;-48
2022/10/10 11:31:33;;;;;;;3.10;1.87;;;;;;;;;;5054335;28;20413;-45
2022/10/10 11:34:02;;;;;;;7.73;2.60;;;;;;;;;;5053535;28;20457;-46
2022/10/10 11:36:31;;;;;;;8.37;2.57;;;;;;;;;;5054200;28;20416;-47
2022/10/10 11:39:01;;;;;;;3.23;2.20;;;;;;;;;;5053908;28;20422;-45
2022/10/10 11:41:39;;;;;;;3.83;2.23;;;;;;;;;;5054265;28;20408;-48
2022/10/10 11:44:14;;;;;;;6.83;1.97;;;;;;;;;;5053612;28;20438;-47
2022/10/10 11:46:46;;;;;;;5.30;2.20;;;;;;;;;;5054236;28;20402;-47
2022/10/10 11:49:12;;;;;;;7.50;2.67;;;;;;;;;;5044374;28;20521;-46
2022/10/10 11:51:57;;;;;;;7.87;2.60;;;;;;;;;;5036699;28;20493;-46
2022/10/10 11:54:45;;;;;;;6.37;2.57;;;;;;;;;;5033110;28;20449;-46
2022/10/10 11:57:18;;;;;;;4.80;2.07;;;;;;;;;;5033859;28;20437;-46
2022/10/10 11:59:47;;;;;;;7.00;2.63;;;;;;;;;;5033655;28;20413;-47
2022/10/10 12:02:36;;;;;;;8.73;2.57;;;;;;;;;;5034050;28;20500;-47
2022/10/10 12:05:05;;;;;;;5.77;2.30;;;;;;;;;;5030512;28;20427;-47
2022/10/10 12:07:30;;;;;;;14.07;2.90;;;;;;;;;;5033803;28;20802;-48
2022/10/10 12:10:08;;;;;;;6.30;2.50;;;;;;;;;;5033589;28;20406;-47
2022/10/10 12:12:39;;;;;;;6.63;3.00;;;;;;;;;;5033535;28;20403;-47
2022/10/10 12:15:09;;;;;;;8.63;3.20;;;;;;;;;;5033364;28;20507;-47
2022/10/10 12:17:39;;;;;;;6.50;2.80;;;;;;;;;;5033421;28;20402;-48
2022/10/10 12:20:11;;;;;;;7.63;2.90;;;;;;;;;;5033564;28;20399;-48
2022/10/10 12:22:37;;;;;;;9.50;2.73;;;;;;;;;;5046523;28;20913;-47
2022/10/10 12:25:22;;;;;;;7.17;2.70;;;;;;;;;;5052984;28;20401;-46
2022/10/10 12:28:05;;;;;;;10.17;3.33;;;;;;;;;;5053069;28;20519;-48
2022/10/10 12:30:31;;;;;;;4.97;2.80;;;;;;;;;;5053744;28;20437;-46
2022/10/10 12:32:57;;;;;;;7.83;2.70;;;;;;;;;;5052631;28;20401;-49
2022/10/10 12:35:29;;;;;;;14.37;3.30;;;;;;;;;;5053180;28;20467;-47
2022/10/10 12:38:04;;;;;;;6.10;3.10;;;;;;;;;;5052428;28;20437;-46
2022/10/10 12:40:31;;;;;;;9.00;2.50;;;;;;;;;;5052851;28;20490;-48
2022/10/10 12:42:56;;;;;;;3.00;2.37;;;;;;;;;;5052545;28;20905;-47
2022/10/10 12:45:28;;;;;;;6.27;2.83;;;;;;;;;;5052962;28;20405;-46
2022/10/10 12:47:55;;;;;;;9.53;2.83;;;;;;;;;;5052725;28;20455;-48
2022/10/10 12:50:26;;;;;;;16.60;3.33;;;;;;;;;;5052610;28;20405;-45
2022/10/10 12:52:54;;;;;;;10.93;3.47;;;;;;;;;;5052215;28;20419;-49
2022/10/10 12:55:22;;;;;;;8.13;2.73;;;;;;;;;;5052954;28;20490;-46
2022/10/10 12:57:49;;;;;;;7.10;2.73;;;;;;;;;;5052743;28;20503;-45
2022/10/10 13:00:19;;;;;;;8.73;3.50;;;;;;;;;;5052486;28;20412;-48
2022/10/10 13:03:05;;;;;;;7.00;3.20;;;;;;;;;;5052094;28;20421;-47
2022/10/10 13:05:36;;;;;;;8.57;2.90;;;;;;;;;;5052738;28;20456;-45
2022/10/10 13:08:05;;;;;;;7.23;3.03;;;;;;;;;;5052511;28;20432;-48
2022/10/10 13:10:33;;;;;;;5.77;2.77;;;;;;;;;;5052407;28;20398;-46
2022/10/10 13:13:02;;;;;;;4.43;2.57;;;;;;;;;;5052438;28;20899;-48
2022/10/10 13:15:29;;;;;;;13.67;3.10;;;;;;;;;;5052646;28;20506;-48
2022/10/10 13:17:55;;;;;;;12.40;4.00;;;;;;;;;;5052239;28;20428;-48
2022/10/10 13:20:27;;;;;;;9.23;2.83;;;;;;;;;;5052236;28;20404;-47
2022/10/10 13:22:54;;;;;;;11.03;3.20;;;;;;;;;;5051842;28;20401;-48
2022/10/10 13:25:20;;;;;;;7.47;2.60;;;;;;;;;;5052231;28;20465;-45
2022/10/10 13:27:46;;;;;;;7.40;2.80;;;;;;;;;;5042508;28;20446;-47
2022/10/10 13:30:18;;;;;;;8.63;2.77;;;;;;;;;;5031521;28;20407;-45
2022/10/10 13:32:45;;;;;;;6.10;3.07;;;;;;;;;;5031649;28;20420;-43
2022/10/10 13:35:19;;;;;;;11.60;3.40;;;;;;;;;;5032218;28;20459;-45
2022/10/10 13:37:49;;;;;;;7.80;3.07;;;;;;;;;;5032046;28;20464;-47
2022/10/10 13:40:16;;;;;;;7.63;2.80;;;;;;;;;;5032087;28;20409;-48
2022/10/10 13:42:42;;;;;;;10.17;3.03;;;;;;;;;;5031634;28;20410;-47
2022/10/10 13:45:27;;;;;;;4.10;2.83;;;;;;;;;;5031828;28;20414;-47
2022/10/10 13:47:55;;;;;;;10.63;2.90;;;;;;;;;;5031829;28;20834;-48
2022/10/10 13:50:21;;;;;;;5.83;3.50;;;;;;;;;;5031933;28;20410;-49
2022/10/10 13:52:47;;;;;;;11.27;3.23;;;;;;;;;;5031198;28;20404;-46
2022/10/10 13:55:14;;;;;;;12.93;2.93;;;;;;;;;;5031694;28;21089;-46
2022/10/10 13:57:41;;;;;;;7.70;3.07;;;;;;;;;;5031772;28;20823;-44
2022/10/10 14:00:14;;;;;;;11.43;2.80;;;;;;;;;;5031772;28;20398;-49
2022/10/10 14:02:43;;;;;;;6.13;2.57;;;;;;;;;;5031338;28;20422;-48
2022/10/10 14:05:15;;;;;;;8.33;2.77;;;;;;;;;;5031482;28;20402;-48
2022/10/10 14:07:46;;;;;;;6.63;2.80;;;;;;;;;;5031488;28;20421;-43
2022/10/10 14:10:13;;;;;;;7.13;2.40;;;;;;;;;;5031699;28;20413;-47
2022/10/10 14:12:44;;;;;;;9.87;3.93;;;;;;;;;;5031408;28;20404;-48
2022/10/10 14:15:28;;;;;;;11.13;2.70;;;;;;;;;;5031372;28;20515;-46
2022/10/10 14:17:54;;;;;;;7.20;2.70;;;;;;;;;;5031337;28;20440;-47
2022/10/10 14:20:20;;;;;;;11.67;3.10;;;;;;;;;;5031605;28;20495;-49
2022/10/10 14:22:47;;;;;;;8.70;2.87;;;;;;;;;;5030992;28;20398;-44
2022/10/10 14:25:13;;;;;;;5.77;3.37;;;;;;;;;;5031447;28;20406;-48
2022/10/10 14:27:39;;;;;;;7.00;2.80;;;;;;;;;;5031592;28;20402;-47
2022/10/10 14:30:05;;;;;;;9.47;3.07;;;;;;;;;;5031569;28;20883;-47
2022/10/10 14:32:31;;;;;;;13.37;2.70;;;;;;;;;;5030915;28;20406;-46
2022/10/10 14:34:57;;;;;;;5.90;2.60;;;;;;;;;;5031047;28;20804;-48
2022/10/10 14:37:27;;;;;;;9.97;2.87;;;;;;;;;;5031417;28;20501;-47
2022/10/10 14:39:54;;;;;;;5.30;2.50;;;;;;;;;;5031583;28;20412;-47
2022/10/10 14:42:21;;;;;;;8.43;2.43;;;;;;;;;;5034816;28;20406;-48
2022/10/10 14:44:47;;;;;;;6.90;2.97;;;;;;;;;;5035023;28;20895;-47
2022/10/10 14:47:20;;;;;;;8.33;3.83;;;;;;;;;;5035240;28;20413;-47
2022/10/10 14:49:46;;;;;;;12.00;3.33;;;;;;;;;;5035996;28;20413;-42
2022/10/10 14:52:14;;;;;;;14.53;3.20;;;;;;;;;;5034864;28;20403;-42
2022/10/10 14:54:40;;;;;;;8.00;3.20;;;;;;;;;;5034754;28;20458;-43